createdAt,value
2019-01-20T00:00:47.652Z,15.47
2019-01-20T00:03:16.828Z,17.37
2019-01-20T00:05:45.928Z,17.60
2019-01-20T00:08:14.940Z,17.47
2019-01-20T00:10:44.283Z,17.97
2019-01-20T00:13:13.348Z,16.97
2019-01-20T00:15:43.042Z,17.37
2019-01-20T00:18:12.169Z,16.70
2019-01-20T00:20:41.260Z,16.90
2019-01-20T00:23:10.415Z,17.30
2019-01-20T00:25:39.422Z,15.37
2019-01-20T00:28:08.520Z,16.30
2019-01-20T00:30:37.584Z,16.03
2019-01-20T00:33:06.648Z,16.57
2019-01-20T00:35:35.731Z,15.57
2019-01-20T00:38:04.934Z,16.03
2019-01-20T00:40:33.969Z,15.77
2019-01-20T00:43:03.045Z,15.33
2019-01-20T00:45:32.176Z,15.13
2019-01-20T00:48:01.152Z,16.07
2019-01-20T00:50:30.275Z,18.07
2019-01-20T00:52:59.319Z,16.17
2019-01-20T00:55:28.339Z,16.40
2019-01-20T00:57:57.411Z,16.90
2019-01-20T01:00:27.825Z,18.07
2019-01-20T01:02:56.807Z,15.53
2019-01-20T01:05:26.122Z,16.17
2019-01-20T01:07:55.192Z,15.97
2019-01-20T01:10:24.259Z,15.37
2019-01-20T01:12:53.243Z,15.30
2019-01-20T01:15:22.313Z,15.57
2019-01-20T01:17:51.332Z,15.63
2019-01-20T01:20:20.443Z,15.83
2019-01-20T01:22:49.461Z,15.93
2019-01-20T01:25:18.663Z,14.10
2019-01-20T01:27:47.732Z,15.03
2019-01-20T01:30:17.870Z,15.50
2019-01-20T01:32:46.890Z,14.97
2019-01-20T01:35:15.914Z,14.20
2019-01-20T01:37:44.978Z,15.83
2019-01-20T01:40:14.834Z,16.17
2019-01-20T01:42:44.000Z,15.10
2019-01-20T01:45:17.348Z,15.30
2019-01-20T01:47:46.448Z,15.23
2019-01-20T01:50:15.935Z,14.43
2019-01-20T01:52:44.993Z,15.03
2019-01-20T01:55:14.019Z,15.37
2019-01-20T01:57:42.990Z,15.23
2019-01-20T02:00:16.365Z,15.30
2019-01-20T02:02:45.517Z,14.67
2019-01-20T02:05:14.767Z,14.63
2019-01-20T02:07:43.839Z,14.57
2019-01-20T02:10:14.347Z,15.40
2019-01-20T02:12:43.362Z,15.20
2019-01-20T02:15:14.345Z,14.90
2019-01-20T02:17:43.525Z,15.00
2019-01-20T02:20:13.414Z,15.60
2019-01-20T02:22:42.542Z,18.63
2019-01-20T02:25:11.711Z,16.37
2019-01-20T02:27:40.813Z,16.07
2019-01-20T02:30:12.169Z,15.93
2019-01-20T02:32:41.162Z,15.90
2019-01-20T02:35:10.219Z,16.67
2019-01-20T02:37:39.291Z,20.07
2019-01-20T02:40:08.819Z,17.30
2019-01-20T02:42:37.826Z,17.37
2019-01-20T02:45:07.343Z,17.63
2019-01-20T02:47:36.448Z,18.07
2019-01-20T02:50:05.877Z,17.73
2019-01-20T02:52:34.927Z,17.27
2019-01-20T02:55:04.411Z,16.63
2019-01-20T02:57:33.526Z,16.90
2019-01-20T03:00:02.548Z,17.47
2019-01-20T03:02:31.585Z,16.80
2019-01-20T03:05:00.660Z,16.80
2019-01-20T03:07:29.653Z,16.27
2019-01-20T03:09:58.655Z,16.83
2019-01-20T03:12:27.736Z,18.53
2019-01-20T03:14:56.707Z,17.27
2019-01-20T03:17:25.716Z,18.13
2019-01-20T03:19:54.698Z,17.53
2019-01-20T03:22:23.712Z,17.10
2019-01-20T03:24:52.696Z,16.17
2019-01-20T03:27:21.691Z,17.10
2019-01-20T03:29:50.675Z,16.23
2019-01-20T03:32:19.693Z,16.90
2019-01-20T03:34:48.734Z,16.83
2019-01-20T03:37:18.587Z,15.87
2019-01-20T03:39:47.558Z,16.43
2019-01-20T03:42:16.571Z,16.63
2019-01-20T03:44:45.550Z,17.60
2019-01-20T03:47:14.632Z,15.43
2019-01-20T03:49:43.614Z,16.27
2019-01-20T03:52:12.633Z,16.73
2019-01-20T03:54:41.669Z,15.33
2019-01-20T03:57:10.675Z,15.17
2019-01-20T03:59:39.656Z,16.17
2019-01-20T04:02:08.669Z,15.43
2019-01-20T04:04:37.652Z,16.70
2019-01-20T04:07:06.664Z,15.83
2019-01-20T04:09:35.665Z,16.33
2019-01-20T04:12:04.787Z,15.80
2019-01-20T04:14:33.820Z,17.07
2019-01-20T04:17:02.875Z,14.77
2019-01-20T04:19:31.893Z,15.77
2019-01-20T04:22:00.856Z,16.40
2019-01-20T04:24:29.866Z,15.83
2019-01-20T04:26:58.911Z,16.43
2019-01-20T04:29:27.922Z,16.63
2019-01-20T04:31:56.915Z,16.37
2019-01-20T04:34:25.990Z,15.50
2019-01-20T04:36:54.983Z,15.23
2019-01-20T04:39:24.014Z,17.13
2019-01-20T04:41:53.058Z,15.40
2019-01-20T04:44:22.096Z,16.43
2019-01-20T04:46:51.110Z,16.33
2019-01-20T04:49:20.139Z,16.13
2019-01-20T04:51:49.233Z,16.20
2019-01-20T04:54:18.321Z,16.43
2019-01-20T04:56:47.330Z,17.00
2019-01-20T04:59:16.314Z,15.23
2019-01-20T05:01:45.325Z,16.10
2019-01-20T05:04:14.301Z,15.87
2019-01-20T05:06:43.283Z,16.67
2019-01-20T05:09:12.267Z,15.47
2019-01-20T05:11:41.365Z,16.50
2019-01-20T05:14:10.355Z,15.07
2019-01-20T05:16:39.331Z,15.83
2019-01-20T05:19:08.334Z,16.67
2019-01-20T05:21:37.334Z,23.17
2019-01-20T05:24:14.208Z,30.90
2019-01-20T05:26:43.195Z,18.53
2019-01-20T05:29:13.186Z,15.63
2019-01-20T05:31:42.208Z,15.70
2019-01-20T05:34:11.305Z,15.27
2019-01-20T05:36:40.346Z,16.70
2019-01-20T05:39:09.375Z,15.60
2019-01-20T05:41:38.428Z,18.73
2019-01-20T05:44:07.524Z,16.80
2019-01-20T05:46:36.492Z,16.03
2019-01-20T05:49:05.497Z,15.63
2019-01-20T05:51:34.547Z,16.33
2019-01-20T05:54:03.719Z,16.77
2019-01-20T05:56:32.709Z,16.27
2019-01-20T05:59:01.838Z,15.87
2019-01-20T06:01:30.860Z,16.33
2019-01-20T06:03:59.851Z,16.40
2019-01-20T06:06:28.862Z,16.23
2019-01-20T06:08:58.936Z,15.53
2019-01-20T06:11:28.020Z,15.73
2019-01-20T06:13:57.028Z,15.20
2019-01-20T06:16:26.031Z,16.23
2019-01-20T06:18:55.064Z,16.87
2019-01-20T06:21:24.056Z,14.93
2019-01-20T06:23:53.147Z,15.40
2019-01-20T06:26:22.196Z,16.20
2019-01-20T06:28:51.222Z,17.37
2019-01-20T06:31:20.208Z,15.67
2019-01-20T06:33:49.251Z,17.00
2019-01-20T06:36:18.230Z,16.10
2019-01-20T06:38:47.295Z,15.40
2019-01-20T06:41:16.361Z,15.80
2019-01-20T06:43:45.341Z,15.73
2019-01-20T06:46:14.328Z,16.43
2019-01-20T06:48:43.340Z,17.43
2019-01-20T06:51:12.360Z,16.00
2019-01-20T06:53:41.490Z,16.63
2019-01-20T06:56:10.528Z,16.40
2019-01-20T06:58:39.579Z,16.17
2019-01-20T07:01:08.604Z,16.23
2019-01-20T07:03:37.713Z,16.03
2019-01-20T07:06:06.710Z,16.53
2019-01-20T07:08:35.719Z,16.23
2019-01-20T07:11:04.783Z,16.77
2019-01-20T07:13:33.808Z,16.60
2019-01-20T07:16:02.894Z,15.43
2019-01-20T07:18:31.976Z,15.77
2019-01-20T07:21:00.967Z,15.70
2019-01-20T07:23:29.966Z,16.23
2019-01-20T07:25:59.010Z,15.87
2019-01-20T07:28:27.987Z,17.13
2019-01-20T07:30:56.962Z,15.77
2019-01-20T07:33:26.031Z,15.77
2019-01-20T07:35:55.016Z,18.10
2019-01-20T07:38:24.003Z,16.93
2019-01-20T07:40:52.995Z,16.13
2019-01-20T07:43:21.986Z,16.97
2019-01-20T07:45:51.099Z,16.87
2019-01-20T07:48:20.146Z,17.23
2019-01-20T07:50:49.242Z,16.80
2019-01-20T07:53:18.250Z,17.50
2019-01-20T07:55:47.299Z,16.57
2019-01-20T07:58:16.294Z,16.33
2019-01-20T08:00:45.376Z,15.87
2019-01-20T08:03:14.342Z,15.80
2019-01-20T08:05:43.375Z,15.07
2019-01-20T08:08:12.420Z,15.83
2019-01-20T08:10:41.409Z,16.10
2019-01-20T08:13:10.394Z,15.53
2019-01-20T08:15:39.390Z,16.83
2019-01-20T08:18:08.400Z,16.37
2019-01-20T08:20:37.595Z,15.67
2019-01-20T08:23:06.709Z,15.87
2019-01-20T08:25:35.710Z,16.33
2019-01-20T08:28:04.706Z,15.93
2019-01-20T08:30:33.724Z,16.40
2019-01-20T08:33:02.712Z,15.50
2019-01-20T08:35:31.710Z,15.80
2019-01-20T08:38:00.686Z,15.00
2019-01-20T08:40:30.576Z,16.13
2019-01-20T08:42:59.690Z,16.03
2019-01-20T08:45:50.966Z,15.90
2019-01-20T08:48:20.735Z,15.40
2019-01-20T08:50:49.740Z,16.70
2019-01-20T08:53:18.769Z,16.83
2019-01-20T08:55:47.754Z,16.77
2019-01-20T08:58:16.722Z,16.03
2019-01-20T09:00:45.718Z,16.87
2019-01-20T09:03:14.706Z,16.70
2019-01-20T09:05:43.703Z,16.00
2019-01-20T09:08:12.700Z,16.00
2019-01-20T09:10:41.699Z,15.97
2019-01-20T09:13:11.196Z,16.60
2019-01-20T09:15:40.147Z,16.97
2019-01-20T09:18:09.138Z,16.83
2019-01-20T09:20:38.126Z,17.07
2019-01-20T09:23:07.100Z,16.77
2019-01-20T09:25:36.083Z,17.20
2019-01-20T09:28:05.235Z,16.60
2019-01-20T09:30:34.243Z,16.53
2019-01-20T09:33:03.219Z,17.10
2019-01-20T09:35:32.223Z,18.10
2019-01-20T09:38:01.197Z,17.67
2019-01-20T09:40:30.190Z,17.30
2019-01-20T09:42:59.161Z,18.27
2019-01-20T09:45:29.693Z,17.53
2019-01-20T09:47:58.707Z,17.43
2019-01-20T09:50:27.765Z,17.63
2019-01-20T09:52:56.741Z,18.27
2019-01-20T09:55:25.739Z,17.70
2019-01-20T09:57:54.756Z,18.13
2019-01-20T10:00:24.846Z,18.90
2019-01-20T10:02:53.983Z,17.90
2019-01-20T10:05:22.977Z,18.27
2019-01-20T10:07:52.039Z,17.40
2019-01-20T10:10:21.154Z,19.10
2019-01-20T10:12:50.151Z,18.73
2019-01-20T10:15:19.151Z,17.73
2019-01-20T10:17:48.155Z,17.93
2019-01-20T10:20:27.271Z,20.10
2019-01-20T10:22:56.278Z,21.90
2019-01-20T10:25:25.355Z,19.93
2019-01-20T10:27:54.330Z,20.17
2019-01-20T10:30:24.489Z,19.80
2019-01-20T10:32:53.576Z,19.97
2019-01-20T10:35:26.116Z,19.70
2019-01-20T10:37:56.025Z,18.97
2019-01-20T10:40:25.023Z,20.10
2019-01-20T10:42:54.223Z,18.70
2019-01-20T10:45:23.294Z,18.37
2019-01-20T10:47:52.345Z,18.87
2019-01-20T10:50:22.138Z,18.07
2019-01-20T10:52:51.259Z,18.60
2019-01-20T10:55:20.243Z,18.93
2019-01-20T10:57:49.265Z,19.63
2019-01-20T11:00:20.249Z,19.83
2019-01-20T11:02:49.271Z,19.67
2019-01-20T11:05:25.037Z,18.67
2019-01-20T11:07:48.986Z,19.17
2019-01-20T11:10:18.083Z,19.10
2019-01-20T11:12:47.161Z,18.87
2019-01-20T11:15:16.215Z,19.77
2019-01-20T11:17:45.206Z,18.97
2019-01-20T11:20:14.747Z,18.40
2019-01-20T11:22:43.735Z,17.90
2019-01-20T11:25:16.444Z,18.10
2019-01-20T11:27:45.448Z,19.03
2019-01-20T11:30:14.601Z,17.87
2019-01-20T11:32:43.622Z,17.40
2019-01-20T11:35:13.684Z,17.90
2019-01-20T11:37:42.692Z,18.00
2019-01-20T11:40:12.214Z,18.93
2019-01-20T11:42:41.208Z,17.90
2019-01-20T11:45:11.959Z,17.50
2019-01-20T11:47:41.950Z,16.63
2019-01-20T11:50:11.286Z,18.00
2019-01-20T11:52:40.283Z,18.00
2019-01-20T11:55:09.578Z,17.80
2019-01-20T11:57:38.627Z,19.30
2019-01-20T12:00:09.546Z,19.07
2019-01-20T12:02:38.620Z,18.03
2019-01-20T12:05:08.632Z,18.03
2019-01-20T12:07:37.700Z,17.20
2019-01-20T12:10:07.187Z,17.20
2019-01-20T12:12:36.808Z,18.20
2019-01-20T12:15:06.863Z,18.50
2019-01-20T12:17:36.099Z,17.97
2019-01-20T12:20:05.932Z,17.83
2019-01-20T12:22:34.937Z,18.43
2019-01-20T12:25:04.801Z,18.40
2019-01-20T12:27:33.807Z,19.33
2019-01-20T12:30:02.791Z,19.03
2019-01-20T12:32:31.787Z,19.87
2019-01-20T12:35:00.774Z,19.07
2019-01-20T12:37:29.774Z,19.13
2019-01-20T12:39:58.759Z,19.10
2019-01-20T12:42:27.760Z,19.23
2019-01-20T12:44:56.750Z,18.20
2019-01-20T12:47:25.820Z,21.95
2019-01-20T12:49:55.667Z,19.37
2019-01-20T12:52:26.288Z,19.83
2019-01-20T12:54:55.867Z,20.17
2019-01-20T12:57:26.163Z,20.50
2019-01-20T12:59:58.935Z,17.83
2019-01-20T13:02:28.753Z,19.40
2019-01-20T13:04:58.807Z,19.73
2019-01-20T13:07:27.955Z,19.63
2019-01-20T13:09:56.944Z,19.93
2019-01-20T13:12:25.916Z,19.87
2019-01-20T13:14:56.042Z,19.60
2019-01-20T13:17:25.739Z,23.00
2019-01-20T13:19:55.759Z,24.93
2019-01-20T13:22:25.622Z,23.00
2019-01-20T13:24:55.007Z,22.93
2019-01-20T13:27:24.623Z,28.17
2019-01-20T13:29:54.381Z,23.90
2019-01-20T13:32:24.071Z,21.70
2019-01-20T13:34:53.235Z,19.93
2019-01-20T13:37:22.220Z,21.30
2019-01-20T13:39:51.219Z,20.13
2019-01-20T13:42:21.128Z,19.90
2019-01-20T13:44:51.964Z,20.00
2019-01-20T13:47:22.477Z,20.43
2019-01-20T13:49:51.542Z,18.53
2019-01-20T13:52:20.525Z,19.53
2019-01-20T13:54:49.674Z,18.77
2019-01-20T13:57:18.679Z,19.03
2019-01-20T13:59:47.688Z,18.77
2019-01-20T14:02:16.710Z,19.53
2019-01-20T14:04:45.808Z,18.87
2019-01-20T14:07:14.815Z,20.40
2019-01-20T14:09:43.817Z,18.80
2019-01-20T14:12:12.903Z,18.90
2019-01-20T14:14:43.264Z,18.43
2019-01-20T14:17:12.325Z,19.97
2019-01-20T14:19:41.400Z,18.73
2019-01-20T14:22:10.477Z,18.63
2019-01-20T14:24:39.645Z,19.63
2019-01-20T14:27:08.605Z,19.17
2019-01-20T14:29:37.627Z,19.07
2019-01-20T14:32:06.630Z,18.63
2019-01-20T14:34:35.670Z,19.50
2019-01-20T14:37:04.644Z,19.07
2019-01-20T14:39:33.667Z,19.00
2019-01-20T14:42:02.678Z,18.30
2019-01-20T14:44:31.764Z,19.27
2019-01-20T14:47:03.335Z,18.13
2019-01-20T14:49:32.444Z,18.83
2019-01-20T14:52:01.571Z,18.60
2019-01-20T14:54:30.575Z,19.17
2019-01-20T14:56:59.670Z,18.67
2019-01-20T14:59:28.679Z,18.07
2019-01-20T15:01:57.799Z,18.47
2019-01-20T15:04:26.817Z,17.73
2019-01-20T15:06:55.896Z,17.13
2019-01-20T15:09:24.978Z,18.27
2019-01-20T15:11:55.740Z,17.57
2019-01-20T15:14:29.142Z,18.13
2019-01-20T15:16:58.238Z,20.90
2019-01-20T15:19:28.233Z,20.37
2019-01-20T15:21:57.272Z,20.30
2019-01-20T15:24:31.249Z,21.07
2019-01-20T15:26:57.097Z,19.50
2019-01-20T15:29:26.139Z,18.30
2019-01-20T15:31:55.124Z,22.73
2019-01-20T15:34:24.120Z,17.73
2019-01-20T15:36:53.220Z,17.60
2019-01-20T15:39:22.372Z,19.07
2019-01-20T15:41:51.336Z,20.03
2019-01-20T15:44:20.403Z,17.87
2019-01-20T15:46:49.456Z,17.80
2019-01-20T15:49:19.922Z,19.30
2019-01-20T15:51:49.097Z,17.77
2019-01-20T15:54:18.213Z,17.03
2019-01-20T15:56:47.351Z,15.63
2019-01-20T15:59:16.420Z,16.80
2019-01-20T16:01:45.520Z,15.43
2019-01-20T16:04:14.628Z,16.53
2019-01-20T16:06:43.850Z,15.80
2019-01-20T16:09:12.870Z,16.50
2019-01-20T16:11:42.325Z,17.27
2019-01-20T16:14:11.713Z,16.13
2019-01-20T16:16:40.850Z,17.00
2019-01-20T16:19:10.086Z,16.83
2019-01-20T16:21:39.149Z,16.63
2019-01-20T16:24:11.998Z,16.53
2019-01-20T16:26:45.578Z,16.90
2019-01-20T16:29:16.260Z,17.80
2019-01-20T16:31:47.141Z,17.27
2019-01-20T16:34:17.446Z,17.70
2019-01-20T16:36:46.552Z,16.10
2019-01-20T16:39:15.543Z,17.63
2019-01-20T16:41:47.437Z,17.13
2019-01-20T16:44:16.538Z,16.67
2019-01-20T16:46:45.640Z,17.67
2019-01-20T16:49:14.703Z,17.50
2019-01-20T16:51:43.807Z,16.43
2019-01-20T16:54:13.058Z,18.17
2019-01-20T16:56:42.498Z,16.47
2019-01-20T16:59:11.671Z,16.93
2019-01-20T17:01:40.857Z,16.17
2019-01-20T17:04:10.091Z,17.40
2019-01-20T17:06:39.170Z,16.47
2019-01-20T17:09:08.820Z,17.53
2019-01-20T17:11:37.923Z,17.33
2019-01-20T17:14:06.997Z,16.70
2019-01-20T17:16:36.095Z,16.30
2019-01-20T17:19:06.260Z,16.00
2019-01-20T17:21:35.361Z,16.30
2019-01-20T17:24:04.450Z,16.90
2019-01-20T17:26:34.393Z,16.30
2019-01-20T17:29:03.492Z,17.90
2019-01-20T17:31:32.576Z,16.90
2019-01-20T17:34:01.568Z,17.83
2019-01-20T17:36:30.669Z,17.10
2019-01-20T17:39:03.678Z,16.10
2019-01-20T17:41:32.722Z,17.07
2019-01-20T17:44:01.856Z,17.93
2019-01-20T17:46:30.922Z,17.33
2019-01-20T17:49:00.029Z,18.03
2019-01-20T17:51:29.171Z,18.20
2019-01-20T17:53:58.160Z,17.67
2019-01-20T17:56:27.178Z,18.80
2019-01-20T17:58:56.231Z,18.73
2019-01-20T18:01:25.386Z,18.17
2019-01-20T18:03:54.443Z,19.83
2019-01-20T18:06:23.536Z,18.87
2019-01-20T18:08:52.655Z,19.53
2019-01-20T18:11:21.743Z,19.33
2019-01-20T18:13:50.792Z,19.53
2019-01-20T18:16:20.089Z,19.53
2019-01-20T18:18:49.375Z,19.97
2019-01-20T18:21:18.579Z,20.03
2019-01-20T18:23:47.828Z,19.57
2019-01-20T18:26:16.984Z,19.53
2019-01-20T18:28:45.987Z,23.10
2019-01-20T18:31:15.082Z,23.33
2019-01-20T18:33:44.071Z,24.67
2019-01-20T18:36:13.144Z,24.07
2019-01-20T18:38:42.218Z,23.63
2019-01-20T18:41:11.234Z,24.10
2019-01-20T18:43:40.229Z,23.70
2019-01-20T18:46:09.243Z,25.30
2019-01-20T18:48:38.402Z,25.57
2019-01-20T18:51:07.637Z,24.47
2019-01-20T18:53:36.653Z,24.20
2019-01-20T18:56:05.763Z,23.10
2019-01-20T18:58:34.801Z,21.63
2019-01-20T19:01:03.875Z,21.23
2019-01-20T19:03:32.938Z,21.80
2019-01-20T19:06:01.996Z,22.10
2019-01-20T19:08:31.001Z,21.23
2019-01-20T19:10:59.995Z,21.80
2019-01-20T19:13:29.238Z,21.53
2019-01-20T19:15:58.283Z,21.43
2019-01-20T19:18:27.466Z,20.60
2019-01-20T19:20:56.558Z,20.23
2019-01-20T19:23:25.589Z,20.07
2019-01-20T19:25:54.922Z,20.53
2019-01-20T19:28:25.024Z,21.10
2019-01-20T19:30:54.202Z,20.03
2019-01-20T19:33:23.377Z,19.07
2019-01-20T19:35:52.951Z,18.80
2019-01-20T19:38:22.128Z,18.33
2019-01-20T19:40:51.340Z,19.10
2019-01-20T19:43:20.704Z,19.40
2019-01-20T19:45:49.983Z,18.77
2019-01-20T19:48:20.274Z,18.23
2019-01-20T19:50:49.760Z,18.13
2019-01-20T19:53:18.977Z,16.63
2019-01-20T19:55:48.348Z,16.63
2019-01-20T19:58:17.730Z,17.50
2019-01-20T20:00:47.250Z,17.70
2019-01-20T20:03:16.588Z,16.83
2019-01-20T20:05:45.730Z,17.43
2019-01-20T20:08:14.910Z,17.33
2019-01-20T20:10:44.060Z,18.43
2019-01-20T20:13:13.332Z,17.60
2019-01-20T20:15:42.641Z,18.93
2019-01-20T20:18:11.937Z,17.70
2019-01-20T20:20:41.021Z,18.60
2019-01-20T20:23:10.107Z,19.17
2019-01-20T20:25:39.365Z,17.47
2019-01-20T20:28:08.764Z,17.60
2019-01-20T20:30:38.113Z,18.90
2019-01-20T20:33:07.336Z,18.90
2019-01-20T20:35:36.562Z,17.20
2019-01-20T20:38:05.759Z,18.97
2019-01-20T20:40:34.859Z,19.53
2019-01-20T20:43:04.350Z,20.37
2019-01-20T20:45:33.525Z,20.07
2019-01-20T20:48:02.711Z,19.93
2019-01-20T20:50:31.882Z,21.23
2019-01-20T20:53:00.997Z,20.47
2019-01-20T20:55:30.134Z,19.90
2019-01-20T20:57:59.187Z,19.37
2019-01-20T21:00:29.902Z,20.43
2019-01-20T21:02:59.285Z,19.57
2019-01-20T21:05:28.359Z,19.70
2019-01-20T21:07:57.526Z,19.37
2019-01-20T21:10:26.724Z,19.57
2019-01-20T21:12:55.928Z,19.53
2019-01-20T21:15:25.066Z,18.67
2019-01-20T21:17:54.134Z,19.33
2019-01-20T21:20:23.326Z,19.87
2019-01-20T21:22:52.469Z,18.07
2019-01-20T21:25:21.661Z,19.73
2019-01-20T21:27:50.694Z,19.60
2019-01-20T21:30:20.848Z,18.20
2019-01-20T21:32:50.088Z,19.37
2019-01-20T21:35:19.379Z,19.03
2019-01-20T21:37:48.675Z,18.90
2019-01-20T21:40:17.938Z,18.53
2019-01-20T21:42:47.195Z,18.87
2019-01-20T21:45:16.636Z,17.80
2019-01-20T21:47:46.406Z,19.03
2019-01-20T21:50:16.817Z,19.33
2019-01-20T21:52:46.073Z,19.03
2019-01-20T21:55:15.439Z,19.77
2019-01-20T21:57:44.591Z,19.43
2019-01-20T22:00:14.791Z,19.30
2019-01-20T22:02:43.888Z,19.27
2019-01-20T22:05:12.893Z,19.53
2019-01-20T22:07:41.886Z,18.67
2019-01-20T22:10:12.185Z,19.23
2019-01-20T22:12:41.477Z,19.27
2019-01-20T22:15:10.776Z,19.77
2019-01-20T22:17:39.960Z,18.67
2019-01-20T22:20:10.603Z,18.67
2019-01-20T22:22:39.659Z,17.53
2019-01-20T22:25:09.347Z,17.83
2019-01-20T22:27:38.475Z,18.00
2019-01-20T22:30:09.501Z,17.67
2019-01-20T22:32:38.543Z,19.50
2019-01-20T22:35:08.287Z,18.17
2019-01-20T22:37:37.312Z,17.90
2019-01-20T22:40:06.522Z,18.30
2019-01-20T22:42:35.552Z,17.13
2019-01-20T22:45:05.365Z,18.17
2019-01-20T22:47:34.387Z,18.30
2019-01-20T22:50:03.430Z,18.80
2019-01-20T22:52:32.488Z,17.40
2019-01-20T22:55:01.572Z,18.53
2019-01-20T22:57:30.722Z,17.77
2019-01-20T22:59:59.732Z,18.20
2019-01-20T23:02:28.751Z,19.20
2019-01-20T23:04:57.779Z,22.80
2019-01-20T23:07:26.856Z,22.03
2019-01-20T23:09:55.848Z,18.80
2019-01-20T23:12:24.854Z,19.30
2019-01-20T23:14:53.879Z,20.60
2019-01-20T23:17:22.952Z,20.70
2019-01-20T23:19:51.967Z,22.23
2019-01-20T23:22:20.971Z,21.23
2019-01-20T23:24:56.103Z,21.67
2019-01-20T23:46:39.314Z,18.57
2019-01-20T23:49:08.322Z,20.20
2019-01-20T23:51:37.290Z,19.40
2019-01-20T23:54:06.294Z,19.53
2019-01-20T23:56:35.270Z,20.27
2019-01-20T23:59:04.270Z,19.93
